Time;durP1;ratioP1;P1;durP2;ratioP2;P2;SDS_P1;SDS_P2;PMS_P1;PMS_P2;Temp;Humidity;BMP_temperature;BMP_pressure;BME280_temperature;BME280_humidity;BME280_pressure;Samples;Min_cycle;Max_cycle;Signal;HPM_P1;HPM_P2
2023/09/03 00:00:38;;;;;;;10.40;6.47;;;19.00;99.90;;;19.43;100.00;101822.25;5265410;28;20040;-49
2023/09/03 00:03:11;;;;;;;12.00;6.65;;;19.00;99.90;;;19.40;100.00;101814.28;5265488;28;20051;-48
2023/09/03 00:05:53;;;;;;;10.73;6.07;;;19.00;99.90;;;19.38;100.00;101808.09;5278228;28;20051;-49
2023/09/03 00:08:27;;;;;;;11.73;6.50;;;19.00;99.90;;;19.38;100.00;101802.81;5286505;28;20048;-49
2023/09/03 00:10:59;;;;;;;10.98;6.60;;;18.90;99.90;;;19.34;100.00;101800.97;5278520;28;20071;-48
2023/09/03 00:13:31;;;;;;;10.27;6.15;;;18.90;99.90;;;19.33;100.00;101793.91;5265373;28;20062;-48
2023/09/03 00:16:04;;;;;;;10.63;5.97;;;18.90;99.90;;;19.31;100.00;101795.66;5272573;28;20044;-49
2023/09/03 00:18:37;;;;;;;10.27;5.75;;;18.90;99.90;;;19.29;100.00;101797.38;5282700;28;20044;-49
2023/09/03 00:21:11;;;;;;;9.23;5.47;;;18.90;99.90;;;19.25;100.00;101794.69;5273300;28;20036;-48
2023/09/03 00:23:44;;;;;;;9.23;5.68;;;18.80;99.90;;;19.21;100.00;101794.63;5286121;28;20065;-48
2023/09/03 00:26:18;;;;;;;10.27;5.68;;;18.80;99.90;;;19.17;100.00;101796.34;5303411;27;20039;-49
2023/09/03 00:28:55;;;;;;;9.50;5.75;;;18.80;99.90;;;19.15;100.00;101791.88;5286176;28;20063;-49
2023/09/03 00:31:28;;;;;;;11.48;6.45;;;18.70;99.90;;;19.12;100.00;101799.78;5285870;28;20454;-50
2023/09/03 00:34:01;;;;;;;10.57;5.95;;;18.70;99.90;;;19.08;100.00;101804.09;5286090;28;20138;-49
2023/09/03 00:36:34;;;;;;;9.10;5.68;;;18.70;99.90;;;19.06;100.00;101810.25;5285928;28;20048;-49
2023/09/03 00:39:07;;;;;;;9.93;6.43;;;18.70;99.90;;;19.01;100.00;101807.53;5286497;28;20246;-50
2023/09/03 00:41:40;;;;;;;8.95;4.90;;;18.60;99.90;;;18.99;100.00;101814.53;5285605;28;20047;-49
2023/09/03 00:44:14;;;;;;;8.95;5.45;;;18.60;99.90;;;18.95;100.00;101799.50;5286085;28;20058;-48
2023/09/03 00:46:46;;;;;;;9.25;5.38;;;18.60;99.90;;;18.90;100.00;101798.53;5286043;28;20043;-48
2023/09/03 00:49:23;;;;;;;9.68;5.93;;;18.50;99.90;;;18.87;100.00;101798.47;5285951;28;20486;-50
2023/09/03 00:51:57;;;;;;;9.68;5.90;;;18.50;99.90;;;18.82;100.00;101793.13;5285797;28;20412;-49
2023/09/03 00:54:30;;;;;;;9.27;5.25;;;18.40;99.90;;;18.80;100.00;101797.50;5285780;28;20059;-48
2023/09/03 00:57:04;;;;;;;8.60;5.28;;;18.40;99.90;;;18.77;100.00;101793.91;5285833;28;20048;-49
2023/09/03 00:59:36;;;;;;;9.90;5.38;;;18.40;99.90;;;18.74;100.00;101799.16;5282762;28;20048;-49
2023/09/03 01:02:13;;;;;;;8.73;5.45;;;18.30;99.90;;;18.72;100.00;101803.53;5265242;28;20439;-49
2023/09/03 01:04:45;;;;;;;8.55;4.95;;;18.30;99.90;;;18.68;100.00;101799.91;5276471;28;20044;-49
2023/09/03 01:07:20;;;;;;;8.13;5.07;;;18.30;99.90;;;18.66;100.00;101810.47;5285084;28;20420;-49
2023/09/03 01:09:53;;;;;;;;;;;18.30;99.90;;;18.61;100.00;101814.72;5272984;28;20066;-49
2023/09/03 01:12:33;;;;;;;8.80;4.90;;;18.20;99.90;;;18.58;100.00;101816.41;5263914;28;19927;-48
2023/09/03 01:15:14;;;;;;;9.75;5.22;;;18.20;99.90;;;18.55;100.00;101814.63;5263826;28;20135;-49
2023/09/03 01:17:51;;;;;;;11.07;6.30;;;18.20;99.90;;;18.52;100.00;101833.06;5276662;28;20407;-48
2023/09/03 01:20:29;;;;;;;10.80;5.72;;;18.20;99.90;;;18.50;100.00;101833.88;5284939;28;20051;-48
2023/09/03 01:23:31;;;;;;;11.40;6.20;;;18.10;99.90;;;18.48;100.00;101841.78;5274744;28;20040;-48
2023/09/03 01:26:19;;;;;;;10.02;6.05;;;18.10;99.90;;;18.47;100.00;101850.56;5267714;28;20058;-49
2023/09/03 01:28:57;;;;;;;9.27;5.80;;;18.10;99.90;;;18.47;100.00;101858.47;5267900;28;20044;-50
2023/09/03 01:31:31;;;;;;;10.70;5.80;;;18.10;99.90;;;18.48;100.00;101860.25;5277478;28;20052;-50
2023/09/03 01:34:05;;;;;;;10.77;5.65;;;18.10;99.90;;;18.46;100.00;101864.63;5288574;28;20039;-48
2023/09/03 01:36:38;;;;;;;11.35;6.50;;;18.10;99.90;;;18.45;100.00;101862.81;5289938;28;20053;-49
2023/09/03 01:39:11;;;;;;;11.68;6.22;;;18.00;99.90;;;18.43;100.00;101859.28;5272646;28;20090;-48
2023/09/03 01:41:44;;;;;;;10.27;6.13;;;18.00;99.90;;;18.40;100.00;101860.13;5269252;28;20054;-48
2023/09/03 01:44:18;;;;;;;9.45;5.53;;;18.00;99.90;;;18.38;100.00;101853.00;5268458;28;20509;-49
2023/09/03 01:46:54;;;;;;;10.07;6.20;;;18.00;99.90;;;18.36;100.00;101862.66;5268397;28;20048;-49
2023/09/03 01:49:39;;;;;;;10.00;5.53;;;18.00;99.90;;;18.32;100.00;101858.16;5268231;28;20052;-49
2023/09/03 01:52:23;;;;;;;9.52;5.43;;;18.00;99.90;;;18.29;100.00;101858.13;5267759;28;20054;-48
2023/09/03 01:55:01;;;;;;;9.95;5.60;;;17.90;99.90;;;18.26;100.00;101858.97;5282755;28;20496;-48
2023/09/03 01:57:40;;;;;;;10.20;5.82;;;17.90;99.90;;;18.25;100.00;101861.53;5278486;28;20073;-50
2023/09/03 02:00:16;;;;;;;9.93;5.55;;;17.90;99.90;;;18.21;100.00;101857.06;5267780;28;20066;-49
2023/09/03 02:02:53;;;;;;;10.65;5.82;;;17.90;99.90;;;18.19;100.00;101854.38;5269464;28;20105;-48
2023/09/03 02:05:27;;;;;;;10.63;5.40;;;17.80;99.90;;;18.17;100.00;101867.56;5267650;28;20044;-48
2023/09/03 02:07:59;;;;;;;10.25;5.85;;;17.80;99.90;;;18.16;100.00;101865.78;5274167;28;20039;-49
2023/09/03 02:10:31;;;;;;;10.27;5.50;;;17.80;99.90;;;18.17;100.00;101866.66;5288308;28;20059;-49
2023/09/03 02:13:07;;;;;;;11.50;6.47;;;17.80;99.90;;;18.17;100.00;101864.03;5282183;28;20093;-48
2023/09/03 02:15:41;;;;;;;11.02;6.57;;;17.80;99.90;;;18.16;100.00;101868.41;5267263;28;20052;-49
2023/09/03 02:18:13;;;;;;;9.85;5.40;;;17.80;99.90;;;18.14;100.00;101867.50;5267266;28;20051;-47
2023/09/03 02:20:45;;;;;;;12.30;6.53;;;17.80;99.90;;;18.13;100.00;101871.00;5270307;28;20385;-50
2023/09/03 02:23:18;;;;;;;11.23;5.93;;;17.80;99.90;;;18.12;100.00;101870.94;5279212;28;20092;-47
2023/09/03 02:26:01;;;;;;;9.60;5.93;;;17.70;99.90;;;18.11;100.00;101867.44;5288019;28;20051;-50
2023/09/03 02:28:35;;;;;;;10.25;5.35;;;17.80;99.90;;;18.11;100.00;101867.44;5288241;28;20097;-49
2023/09/03 02:31:12;;;;;;;10.27;6.10;;;17.70;99.90;;;18.14;100.00;101866.63;5281422;28;20089;-49
2023/09/03 02:33:45;;;;;;;10.73;6.10;;;17.80;99.90;;;18.17;100.00;101877.22;5266166;28;20069;-49
2023/09/03 02:36:17;;;;;;;11.35;6.53;;;17.80;99.90;;;18.16;100.00;101876.34;5266762;28;20062;-48
2023/09/03 02:39:00;;;;;;;11.35;6.22;;;17.80;99.90;;;18.15;100.00;101874.56;5266604;28;20058;-48
2023/09/03 02:41:33;;;;;;;13.15;6.28;;;17.80;99.90;;;18.13;100.00;101870.13;5268203;28;20493;-49
2023/09/03 02:44:07;;;;;;;9.90;5.72;;;17.80;99.90;;;18.09;100.00;101869.16;5287885;28;20047;-49
2023/09/03 02:46:40;;;;;;;9.95;6.07;;;17.70;99.90;;;18.07;100.00;101865.59;5268608;28;20154;-48
2023/09/03 02:49:13;;;;;;;11.75;6.72;;;17.70;99.90;;;18.05;100.00;101869.94;5273612;28;20426;-48
2023/09/03 02:51:47;;;;;;;10.77;6.15;;;17.70;99.90;;;18.02;100.00;101867.25;5287428;28;20130;-48
2023/09/03 02:54:19;;;;;;;11.20;6.15;;;17.70;99.90;;;17.99;100.00;101872.44;5287690;28;20062;-48
2023/09/03 02:56:52;;;;;;;9.90;5.70;;;17.70;99.90;;;17.97;100.00;101874.16;5287188;28;20047;-49
2023/09/03 02:59:25;;;;;;;10.63;5.93;;;17.60;99.90;;;17.96;100.00;101882.94;5287585;28;20074;-48
2023/09/03 03:02:00;;;;;;;10.57;5.75;;;17.60;99.90;;;17.93;100.00;101877.63;5266259;28;20512;-48
2023/09/03 03:04:32;;;;;;;10.30;5.80;;;17.60;99.90;;;17.92;100.00;101881.09;5266233;28;20044;-49
2023/09/03 03:07:05;;;;;;;10.77;5.68;;;17.60;99.90;;;17.90;100.00;101888.06;5267351;28;20090;-48
2023/09/03 03:09:38;;;;;;;10.23;5.68;;;17.60;99.90;;;17.86;100.00;101886.22;5266290;28;20126;-49
2023/09/03 03:12:10;;;;;;;9.23;4.88;;;17.50;99.90;;;17.84;100.00;101893.22;5266553;28;20117;-49
2023/09/03 03:14:44;;;;;;;10.10;5.25;;;17.50;99.90;;;17.80;100.00;101887.00;5266329;28;20052;-47
2023/09/03 03:17:17;;;;;;;8.80;4.80;;;17.50;99.90;;;17.79;100.00;101884.31;5266172;28;20528;-54
2023/09/03 03:19:51;;;;;;;10.85;6.03;;;17.50;99.90;;;17.79;100.00;101897.50;5286221;28;20497;-49
2023/09/03 03:22:25;;;;;;;11.43;6.55;;;17.40;99.90;;;17.77;100.00;101897.47;5270386;28;20394;-49
2023/09/03 03:25:02;;;;;;;10.60;5.88;;;17.40;99.90;;;17.74;100.00;101897.41;5265649;28;20060;-49
2023/09/03 03:27:37;;;;;;;9.85;5.72;;;17.40;99.90;;;17.72;100.00;101887.66;5266036;28;20048;-49
2023/09/03 03:30:10;;;;;;;9.55;5.68;;;17.40;99.90;;;17.69;100.00;101898.13;5265673;28;20523;-48
2023/09/03 03:32:45;;;;;;;10.95;6.28;;;17.40;99.90;;;17.67;100.00;101905.09;5265672;28;20036;-48
2023/09/03 03:35:18;;;;;;;11.90;6.38;;;17.40;99.90;;;17.66;100.00;101903.31;5265654;28;20394;-47
2023/09/03 03:37:52;;;;;;;11.13;6.25;;;17.30;99.90;;;17.64;100.00;101916.47;5265353;28;20055;-49
2023/09/03 03:40:24;;;;;;;10.75;5.93;;;17.30;99.90;;;17.61;100.00;101917.28;5265682;28;20063;-48
2023/09/03 03:42:57;;;;;;;11.05;5.50;;;17.30;99.90;;;17.60;100.00;101914.59;5277992;28;20104;-48
2023/09/03 03:45:30;;;;;;;9.15;5.93;;;17.30;99.90;;;17.58;100.00;101909.28;5286208;28;20444;-49
2023/09/03 03:48:05;;;;;;;10.48;6.03;;;17.30;99.90;;;17.53;100.00;101897.75;5281271;28;20093;-48
2023/09/03 03:50:38;;;;;;;9.48;5.50;;;17.20;99.90;;;17.53;100.00;101902.13;5275189;28;20074;-49
2023/09/03 03:53:10;;;;;;;11.27;6.38;;;17.20;99.90;;;17.52;100.00;101892.44;5287531;28;20039;-48
2023/09/03 03:55:42;;;;;;;12.20;6.55;;;17.20;99.90;;;17.51;100.00;101902.09;5286501;28;20068;-50
2023/09/03 03:58:15;;;;;;;11.88;6.13;;;17.20;99.90;;;17.52;100.00;101895.06;5279991;28;20052;-49
2023/09/03 04:00:48;;;;;;;11.07;5.80;;;17.20;99.90;;;17.52;100.00;101900.34;5267870;28;20048;-51
2023/09/03 04:03:27;;;;;;;12.07;6.45;;;17.20;99.90;;;17.52;100.00;101890.69;5285346;28;20088;-52
2023/09/03 04:06:00;;;;;;;11.60;6.07;;;17.20;99.90;;;17.53;100.00;101895.09;5285140;28;20039;-51
2023/09/03 04:08:35;;;;;;;9.48;5.50;;;17.20;99.90;;;17.53;100.00;101886.31;5285058;28;20043;-52
2023/09/03 04:11:10;;;;;;;11.73;6.15;;;17.20;99.90;;;17.53;100.00;101881.91;5285241;28;20134;-52
2023/09/03 04:13:44;;;;;;;12.02;6.28;;;17.20;99.90;;;17.55;100.00;101896.06;5284640;28;20116;-52
2023/09/03 04:16:20;;;;;;;13.90;6.72;;;17.20;99.90;;;17.56;100.00;101891.66;5284640;28;20523;-52
2023/09/03 04:18:57;;;;;;;12.52;6.75;;;17.30;99.90;;;17.57;100.00;101902.25;5285056;28;20508;-51
2023/09/03 04:21:33;;;;;;;10.85;6.15;;;17.20;99.90;;;17.58;100.00;101901.38;5284832;28;20044;-52
2023/09/03 04:24:08;;;;;;;13.13;6.82;;;17.30;99.90;;;17.59;100.00;101897.88;5277031;28;20044;-52
2023/09/03 04:26:40;;;;;;;11.77;6.10;;;17.30;99.90;;;17.61;100.00;101890.94;5284157;28;20043;-52
2023/09/03 04:29:16;;;;;;;12.82;6.45;;;17.30;99.90;;;17.64;100.00;101882.19;5284746;28;20065;-52
2023/09/03 04:31:48;;;;;;;13.35;6.78;;;17.30;99.90;;;17.65;100.00;101881.31;5284397;28;20058;-51
2023/09/03 04:34:22;;;;;;;13.68;6.72;;;17.30;99.90;;;17.69;100.00;101880.56;5284133;28;20048;-51
2023/09/03 04:36:55;;;;;;;13.48;7.38;;;17.30;99.90;;;17.69;100.00;101877.03;5283717;28;20423;-51
2023/09/03 04:39:28;;;;;;;13.82;6.43;;;17.40;99.90;;;17.70;100.00;101878.81;5285160;28;20056;-50
2023/09/03 04:42:01;;;;;;;13.98;7.18;;;17.40;99.90;;;17.70;100.00;101898.16;5285608;28;20031;-52
2023/09/03 04:44:37;;;;;;;14.20;7.30;;;17.40;99.90;;;17.68;100.00;101902.50;5284436;28;20047;-52
2023/09/03 04:47:10;;;;;;;14.50;6.90;;;17.40;99.90;;;17.68;100.00;101901.63;5276878;28;20044;-52
2023/09/03 04:49:44;;;;;;;14.00;7.22;;;17.40;99.90;;;17.68;100.00;101912.16;5284635;28;20126;-51
2023/09/03 04:52:17;;;;;;;14.55;6.82;;;17.40;99.90;;;17.70;100.00;101918.34;5284483;28;20036;-52
2023/09/03 04:54:50;;;;;;;15.43;7.63;;;17.40;99.90;;;17.71;100.00;101928.03;5284305;28;20543;-52
2023/09/03 04:57:27;;;;;;;15.75;7.18;;;17.40;99.90;;;17.74;100.00;101938.72;5286847;28;20047;-51
2023/09/03 05:00:02;;;;;;;13.20;6.97;;;17.40;99.90;;;17.75;100.00;101940.50;5288800;28;20039;-52
2023/09/03 05:02:35;;;;;;;15.85;7.13;;;17.40;99.90;;;17.77;100.00;101949.31;5288758;28;20069;-52
2023/09/03 05:05:10;;;;;;;17.60;7.70;;;17.50;99.90;;;17.77;100.00;101963.41;5288197;28;20055;-52
2023/09/03 05:07:46;;;;;;;17.60;7.93;;;17.40;99.90;;;17.78;100.00;101972.19;5287590;28;20154;-51
2023/09/03 05:10:20;;;;;;;15.60;7.63;;;17.40;99.90;;;17.77;100.00;101967.78;5288502;28;20170;-52
2023/09/03 05:12:52;;;;;;;17.02;7.47;;;17.40;99.90;;;17.76;100.00;101974.81;5288373;28;20067;-53
2023/09/03 05:15:25;;;;;;;15.98;8.10;;;17.40;99.90;;;17.77;100.00;101975.69;5288545;28;20118;-52
2023/09/03 05:17:57;;;;;;;16.60;8.68;;;17.40;99.90;;;17.74;100.00;101973.88;5288012;28;20454;-51
2023/09/03 05:20:32;;;;;;;18.58;8.40;;;17.40;99.90;;;17.74;100.00;101973.00;5288563;28;20466;-53
2023/09/03 05:23:05;;;;;;;16.83;7.75;;;17.40;99.90;;;17.69;100.00;101971.97;5288646;28;20465;-51
2023/09/03 05:25:38;;;;;;;12.60;7.30;;;17.40;99.90;;;17.70;100.00;101974.63;5287889;28;20233;-51
2023/09/03 05:28:10;;;;;;;15.07;7.22;;;17.40;99.90;;;17.70;100.00;101984.28;5288194;28;20040;-51
2023/09/03 05:30:43;;;;;;;14.02;7.43;;;17.40;99.90;;;17.68;100.00;101986.00;5287971;28;20086;-51
2023/09/03 05:33:16;;;;;;;13.80;6.68;;;17.40;99.90;;;17.70;100.00;101992.19;5287795;28;20071;-52
2023/09/03 05:35:51;;;;;;;12.57;6.55;;;17.40;99.90;;;17.71;100.00;102007.16;5287927;28;20147;-51
2023/09/03 05:38:24;;;;;;;11.63;6.18;;;17.40;99.90;;;17.69;100.00;101993.94;5288340;28;20240;-51
2023/09/03 05:40:58;;;;;;;11.13;5.60;;;17.40;99.90;;;17.68;100.00;101996.53;5287326;28;21039;-51
2023/09/03 05:43:31;;;;;;;12.93;7.40;;;17.40;99.90;;;17.62;100.00;101995.53;5287580;28;20390;-51
2023/09/03 05:46:05;;;;;;;13.70;6.95;;;17.40;99.90;;;17.56;100.00;102012.94;5287282;28;20508;-51
2023/09/03 05:48:41;;;;;;;12.82;6.47;;;17.30;99.90;;;17.50;100.00;102008.41;5287734;28;20054;-52
2023/09/03 05:51:21;;;;;;;13.43;7.10;;;17.30;99.90;;;17.45;100.00;102015.28;5287969;28;20055;-51
2023/09/03 05:53:53;;;;;;;12.40;6.35;;;17.20;99.90;;;17.39;100.00;102009.84;5287195;28;20553;-52
2023/09/03 05:56:27;;;;;;;;;;;17.20;99.90;;;17.39;100.00;102017.78;5287932;28;20085;-52
2023/09/03 05:59:05;;;;;;;10.98;5.53;;;17.20;99.90;;;17.41;100.00;102012.53;5287458;28;20017;-52
2023/09/03 06:01:39;;;;;;;10.75;5.65;;;17.20;99.90;;;17.44;100.00;102024.06;5287146;28;20047;-52
2023/09/03 06:04:15;;;;;;;12.63;6.47;;;17.20;99.90;;;17.44;100.00;102029.34;5278716;28;20113;-52
2023/09/03 06:06:49;;;;;;;11.75;5.82;;;17.20;99.90;;;17.40;100.00;102032.72;5286188;28;20135;-50
2023/09/03 06:09:21;;;;;;;12.98;6.72;;;17.20;99.90;;;17.41;100.00;102033.63;5285914;28;20051;-51
2023/09/03 06:11:54;;;;;;;11.45;6.47;;;17.20;99.90;;;17.41;100.00;102031.91;5286404;28;20416;-51
2023/09/03 06:14:26;;;;;;;10.82;5.97;;;17.20;99.90;;;17.44;100.00;102039.00;5286971;28;20063;-51
2023/09/03 06:16:59;;;;;;;13.05;6.22;;;17.20;99.90;;;17.45;100.00;102036.38;5286359;28;20139;-51
2023/09/03 06:19:34;;;;;;;15.73;7.78;;;17.20;99.90;;;17.48;100.00;102040.88;5286713;28;20043;-50
2023/09/03 06:22:08;;;;;;;11.80;6.63;;;17.20;99.90;;;17.52;100.00;102037.44;5286377;28;20031;-50
2023/09/03 06:24:40;;;;;;;11.43;6.07;;;17.30;99.90;;;17.55;100.00;102033.16;5286242;28;20054;-51
2023/09/03 06:27:13;;;;;;;14.48;6.70;;;17.30;99.90;;;17.60;100.00;102036.81;5286233;28;20058;-51
2023/09/03 06:29:45;;;;;;;10.43;5.63;;;17.40;99.90;;;17.66;100.00;102053.59;5286346;28;20047;-51
2023/09/03 06:32:17;;;;;;;12.68;6.47;;;17.40;99.90;;;17.70;100.00;102048.47;5286534;28;20507;-52
2023/09/03 06:34:50;;;;;;;18.27;9.18;;;17.40;99.90;;;17.67;100.00;102058.94;5286197;28;20500;-51
2023/09/03 06:37:26;;;;;;;15.20;7.40;;;17.40;99.90;;;17.69;100.00;102058.97;5287456;28;20553;-50
2023/09/03 06:39:59;;;;;;;14.25;7.30;;;17.50;99.90;;;17.69;100.00;102059.88;5286599;28;20035;-51
2023/09/03 06:42:31;;;;;;;17.17;8.57;;;17.50;99.90;;;17.73;100.00;102066.13;5286259;28;20047;-51
2023/09/03 06:45:05;;;;;;;14.32;7.10;;;17.50;99.90;;;17.78;100.00;102077.69;5285994;28;20040;-51
2023/09/03 06:47:40;;;;;;;14.68;7.35;;;17.60;99.90;;;17.83;100.00;102086.63;5285604;28;20066;-51
2023/09/03 06:50:13;;;;;;;11.48;6.18;;;17.60;99.90;;;17.86;100.00;102086.69;5286239;28;20047;-51
2023/09/03 06:52:47;;;;;;;16.20;7.55;;;17.60;99.90;;;17.89;100.00;102092.94;5285566;28;20058;-50
2023/09/03 06:55:19;;;;;;;16.55;7.95;;;17.60;99.90;;;17.88;100.00;102096.44;5285946;28;20051;-50
2023/09/03 06:57:52;;;;;;;14.60;7.15;;;17.60;99.90;;;17.93;100.00;102093.00;5285265;28;20543;-51
2023/09/03 07:00:24;;;;;;;14.45;6.78;;;17.70;99.90;;;17.95;100.00;102110.69;5285922;28;20047;-50
2023/09/03 07:02:56;;;;;;;13.35;6.60;;;17.70;99.90;;;17.94;100.00;102119.47;5285290;28;20521;-51
2023/09/03 07:05:29;;;;;;;12.98;6.00;;;17.70;99.90;;;17.92;100.00;102123.78;5285868;28;20040;-52
2023/09/03 07:08:02;;;;;;;12.50;5.95;;;17.70;99.90;;;18.09;100.00;102130.38;5285340;28;20400;-53
2023/09/03 07:10:35;;;;;;;11.82;5.05;;;17.80;99.90;;;18.24;100.00;102132.50;5285889;28;20117;-52
2023/09/03 07:13:08;;;;;;;12.15;5.75;;;18.00;99.90;;;18.29;100.00;102132.63;5285370;28;20059;-52
2023/09/03 07:15:40;;;;;;;10.52;5.40;;;18.10;99.90;;;18.27;100.00;102136.97;5285796;28;20047;-52
2023/09/03 07:18:12;;;;;;;10.05;5.35;;;18.10;99.90;;;18.24;100.00;102147.44;5284875;28;20051;-52
2023/09/03 07:20:45;;;;;;;14.15;7.07;;;18.10;99.90;;;18.21;100.00;102142.09;5284795;28;20389;-53
2023/09/03 07:23:18;;;;;;;16.45;7.57;;;18.00;99.90;;;18.15;100.00;102143.72;5285109;28;20047;-52
2023/09/03 07:25:51;;;;;;;12.98;6.55;;;18.00;99.90;;;18.08;100.00;102162.91;5284900;28;20409;-52
2023/09/03 07:28:23;;;;;;;14.00;7.35;;;17.90;99.90;;;17.98;100.00;102159.97;5285076;28;20051;-52
2023/09/03 07:30:56;;;;;;;11.57;6.20;;;17.80;99.90;;;17.94;100.00;102168.69;5285310;28;20071;-52
2023/09/03 07:33:28;;;;;;;19.90;9.00;;;17.80;99.90;;;17.95;100.00;102160.81;5285252;28;20102;-52
2023/09/03 07:36:01;;;;;;;17.05;8.38;;;17.80;99.90;;;17.90;100.00;102167.69;5285193;28;20331;-52
2023/09/03 07:38:34;;;;;;;14.68;7.20;;;17.70;99.90;;;17.86;100.00;102173.72;5284979;28;20427;-52
2023/09/03 07:41:07;;;;;;;13.13;6.25;;;17.70;99.90;;;17.86;100.00;102179.00;5284787;28;20503;-53
2023/09/03 07:43:39;;;;;;;13.20;6.30;;;17.70;99.90;;;17.93;100.00;102178.34;5285183;28;20052;-53
2023/09/03 07:46:12;;;;;;;13.43;6.50;;;17.70;99.90;;;17.92;100.00;102171.25;5284227;28;20048;-53
2023/09/03 07:48:44;;;;;;;14.80;7.28;;;17.70;99.90;;;17.86;100.00;102171.09;5285579;28;20120;-53
2023/09/03 07:51:19;;;;;;;14.18;6.70;;;17.70;99.90;;;17.83;100.00;102187.75;5276815;28;20054;-53
2023/09/03 07:53:52;;;;;;;13.52;6.35;;;17.70;99.90;;;17.83;100.00;102187.75;5284848;28;20123;-52
2023/09/03 07:56:25;;;;;;;14.52;6.88;;;17.60;99.90;;;17.81;100.00;102181.53;5284531;28;20048;-52
2023/09/03 07:58:57;;;;;;;13.80;6.70;;;17.70;99.90;;;17.83;100.00;102176.31;5284657;28;20150;-53
2023/09/03 08:01:31;;;;;;;11.75;6.13;;;17.60;99.90;;;17.89;100.00;102173.84;5284886;28;20424;-53
2023/09/03 08:04:05;;;;;;;12.82;6.38;;;17.70;99.90;;;17.99;100.00;102173.22;5284831;28;20086;-52
2023/09/03 08:06:37;;;;;;;10.70;5.43;;;17.70;99.90;;;18.06;100.00;102175.19;5284231;28;20052;-53
2023/09/03 08:09:11;;;;;;;10.23;5.18;;;17.80;99.90;;;18.09;100.00;102175.25;5284475;28;20058;-53
2023/09/03 08:11:46;;;;;;;11.43;5.15;;;17.80;99.90;;;18.16;100.00;102168.38;5285006;28;20060;-52
2023/09/03 08:14:18;;;;;;;8.27;4.57;;;17.90;99.90;;;18.26;100.00;102177.44;5284532;28;20046;-53
2023/09/03 08:16:51;;;;;;;10.82;5.55;;;17.90;99.90;;;18.33;100.00;102184.66;5284031;28;20066;-53
2023/09/03 08:19:23;;;;;;;12.00;5.40;;;18.00;99.90;;;18.31;100.00;102188.97;5284366;28;20048;-53
2023/09/03 08:21:56;;;;;;;9.07;5.10;;;18.00;99.90;;;18.26;100.00;102196.81;5284389;28;20051;-53
2023/09/03 08:24:29;;;;;;;8.85;4.43;;;18.00;99.90;;;18.24;100.00;102200.25;5284336;28;20069;-53
2023/09/03 08:27:02;;;;;;;10.15;5.20;;;18.00;99.90;;;18.22;100.00;102194.03;5283628;28;20048;-53
2023/09/03 08:29:34;;;;;;;9.95;5.45;;;18.00;99.90;;;18.20;100.00;102199.28;5284315;28;20047;-53
2023/09/03 08:32:07;;;;;;;15.52;7.78;;;18.00;99.90;;;18.14;100.00;102202.66;5283447;28;20055;-52
2023/09/03 08:34:39;;;;;;;14.90;7.72;;;17.90;99.90;;;18.08;100.00;102210.41;5284361;28;20404;-54
2023/09/03 08:37:11;;;;;;;17.85;8.52;;;17.90;99.90;;;18.01;100.00;102213.75;5284080;28;20062;-53
2023/09/03 08:39:48;;;;;;;12.30;6.68;;;17.90;99.90;;;18.03;100.00;102205.84;5284463;28;20044;-54
2023/09/03 08:42:22;;;;;;;10.80;5.13;;;17.80;99.90;;;18.08;100.00;102213.03;5284022;28;20048;-54
2023/09/03 08:45:03;;;;;;;11.52;5.78;;;17.90;99.90;;;18.10;100.00;102207.81;5283505;28;20039;-54
2023/09/03 08:47:40;;;;;;;9.68;4.95;;;17.90;99.90;;;18.16;100.00;102214.13;5284035;28;20048;-54
2023/09/03 08:50:13;;;;;;;10.55;5.18;;;17.90;99.90;;;18.27;100.00;102213.53;5284457;28;20048;-53
2023/09/03 08:52:46;;;;;;;10.80;5.18;;;18.00;99.90;;;18.33;100.00;102216.34;5284013;28;20550;-54
2023/09/03 08:55:20;;;;;;;9.55;4.93;;;18.00;99.90;;;18.41;100.00;102212.13;5283947;28;20050;-54
2023/09/03 08:57:54;;;;;;;10.18;5.43;;;18.10;99.90;;;18.54;100.00;102210.69;5283338;28;20058;-54
2023/09/03 09:00:27;;;;;;;9.32;5.30;;;18.20;99.90;;;18.65;100.00;102199.53;5283810;28;20496;-53
2023/09/03 09:03:02;;;;;;;8.43;4.78;;;18.30;99.90;;;18.78;100.00;102194.53;5283820;28;20400;-52
2023/09/03 09:05:36;;;;;;;9.23;4.32;;;18.40;99.90;;;18.88;100.00;102192.16;5284231;28;20047;-53
2023/09/03 09:08:09;;;;;;;10.15;5.00;;;18.50;99.90;;;18.95;100.00;102198.47;5283308;28;20153;-53
2023/09/03 09:10:47;;;;;;;7.82;4.45;;;18.50;99.90;;;19.00;100.00;102206.53;5284163;28;20054;-54
2023/09/03 09:13:23;;;;;;;9.25;5.00;;;18.60;99.90;;;19.09;100.00;102207.59;5283449;28;20142;-52
2023/09/03 09:15:58;;;;;;;9.57;5.45;;;18.70;99.90;;;19.15;100.00;102197.16;5283533;28;20425;-53
2023/09/03 09:18:31;;;;;;;12.27;6.00;;;18.70;99.90;;;19.23;100.00;102200.88;5283584;28;20052;-52
2023/09/03 09:21:04;;;;;;;9.82;4.88;;;18.80;99.90;;;19.35;100.00;102191.41;5283462;28;20052;-51
2023/09/03 09:23:38;;;;;;;16.45;7.90;;;18.90;99.90;;;19.45;100.00;102190.75;5283711;28;20040;-52
2023/09/03 09:26:22;;;;;;;17.75;8.82;;;19.00;99.90;;;19.55;100.00;102182.13;5282968;28;20063;-52
2023/09/03 09:28:59;;;;;;;12.00;5.97;;;19.10;99.90;;;19.78;100.00;102191.44;5283512;28;20048;-52
2023/09/03 09:31:33;;;;;;;11.00;5.47;;;19.20;99.90;;;20.08;100.00;102189.31;5276569;28;20044;-52
2023/09/03 09:34:13;;;;;;;11.88;5.93;;;19.50;99.90;;;20.45;100.00;102186.47;5283116;28;20040;-54
2023/09/03 09:36:55;;;;;;;10.85;5.82;;;19.70;99.90;;;20.99;100.00;102192.56;5282955;28;20130;-54
2023/09/03 09:39:28;;;;;;;11.40;5.55;;;20.20;99.90;;;21.47;100.00;102200.34;5283869;28;20071;-54
2023/09/03 09:42:10;;;;;;;9.38;5.18;;;20.60;99.90;;;21.88;100.00;102205.22;5283489;28;20043;-54
2023/09/03 09:44:59;;;;;;;9.65;5.20;;;21.00;99.90;;;22.12;100.00;102193.97;5287813;28;20050;-52
2023/09/03 09:47:32;;;;;;;8.55;5.00;;;21.30;99.90;;;22.27;100.00;102187.91;5287016;28;20584;-53
2023/09/03 09:50:04;;;;;;;8.05;4.60;;;21.50;99.90;;;22.44;100.00;102195.16;5287140;28;20049;-53
2023/09/03 09:52:37;;;;;;;9.48;5.15;;;21.60;99.90;;;22.69;100.00;102195.31;5287532;28;20055;-53
2023/09/03 09:55:18;;;;;;;8.20;4.85;;;21.90;99.90;;;23.02;100.00;102195.59;5286607;28;20051;-53
2023/09/03 09:57:55;;;;;;;8.25;4.95;;;22.20;99.90;;;23.35;100.00;102203.72;5286595;28;20069;-54
2023/09/03 10:00:35;;;;;;;7.63;4.57;;;22.40;99.90;;;23.64;100.00;102190.53;5278918;28;20043;-54
2023/09/03 10:03:10;;;;;;;7.15;4.03;;;22.70;99.90;;;23.88;100.00;102195.94;5286699;28;20081;-53
2023/09/03 10:05:49;;;;;;;8.23;4.63;;;22.90;99.90;;;24.06;100.00;102195.03;5287098;28;20134;-53
2023/09/03 10:08:22;;;;;;;8.55;5.18;;;23.10;99.90;;;24.06;100.00;102193.31;5286459;28;20047;-53
2023/09/03 10:10:54;;;;;;;9.38;5.55;;;23.20;99.90;;;24.05;100.00;102202.16;5286962;28;20078;-53
2023/09/03 10:13:30;;;;;;;8.25;4.95;;;23.20;99.90;;;24.07;100.00;102204.84;5286795;28;20591;-53
2023/09/03 10:16:03;;;;;;;9.80;5.30;;;23.20;99.90;;;24.01;100.00;102192.41;5286289;28;20051;-54
2023/09/03 10:18:40;;;;;;;9.60;5.03;;;23.20;99.90;;;24.02;100.00;102193.28;5286770;28;20070;-53
2023/09/03 10:21:17;;;;;;;9.00;4.90;;;23.20;99.90;;;24.16;100.00;102196.84;5286476;28;20055;-53
2023/09/03 10:23:51;;;;;;;8.63;4.88;;;23.30;99.90;;;24.22;100.00;102196.84;5288376;28;20115;-53
2023/09/03 10:26:28;;;;;;;8.80;5.15;;;23.40;99.90;;;24.32;100.00;102197.72;5285949;28;20408;-54
2023/09/03 10:29:06;;;;;;;8.88;4.60;;;23.50;99.90;;;24.34;100.00;102193.34;5286352;28;20044;-53
2023/09/03 10:31:40;;;;;;;7.40;4.40;;;23.50;99.90;;;24.38;100.00;102187.09;5286083;28;20050;-54